Time;durP1;ratioP1;P1;durP2;ratioP2;P2;SDS_P1;SDS_P2;PMS_P1;PMS_P2;Temp;Humidity;BMP_temperature;BMP_pressure;BME280_temperature;BME280_humidity;BME280_pressure;Samples;Min_cycle;Max_cycle;Signal;HPM_P1;HPM_P2
2022/01/25 08:24:01;;;;;;;23.38;6.83;;;;;;;-4.14;100.00;101839.08;1773003;78;21126;-84
2022/01/25 08:26:27;;;;;;;19.27;6.10;;;;;;;-4.05;100.00;101840.08;1776494;79;21151;-85
2022/01/25 08:28:57;;;;;;;18.67;6.30;;;;;;;-4.06;100.00;101835.77;1771220;79;20855;-86
2022/01/25 08:31:23;;;;;;;20.20;6.60;;;;;;;-4.03;100.00;101832.89;1688438;83;21610;-83
2022/01/25 08:33:49;;;;;;;21.10;6.75;;;;;;;-3.96;100.00;101834.50;1703392;84;21005;-82
2022/01/25 08:36:18;;;;;;;17.10;6.40;;;;;;;-3.93;100.00;101828.48;1703469;82;21049;-83
2022/01/25 08:38:43;;;;;;;21.82;6.58;;;;;;;-3.93;100.00;101832.42;1702812;84;20985;-83
2022/01/25 08:41:10;;;;;;;17.57;5.83;;;;;;;-3.89;100.00;101825.91;1703509;84;21060;-83
2022/01/25 08:43:36;;;;;;;16.12;5.90;;;;;;;-3.89;100.00;101823.28;1703534;84;21866;-84
2022/01/25 08:46:03;;;;;;;17.52;5.37;;;;;;;-3.95;100.00;101821.19;1703166;84;21026;-84
2022/01/25 08:48:29;;;;;;;22.60;7.85;;;;;;;-4.01;100.00;101822.22;1703538;84;20959;-84
2022/01/25 08:50:55;;;;;;;20.60;7.30;;;;;;;-4.03;100.00;101826.31;1703822;84;21109;-86
2022/01/25 08:53:23;;;;;;;23.22;7.53;;;;;;;-3.94;100.00;101827.28;1703572;84;20998;-84
2022/01/25 08:55:48;;;;;;;26.50;7.92;;;;;;;-3.84;100.00;101826.84;1703230;82;21641;-83
2022/01/25 08:58:15;;;;;;;19.00;7.12;;;;;;;-3.78;100.00;101823.66;1703786;84;20894;-83
2022/01/25 09:00:52;;;;;;;;;;;;;;;;;;;;;
2022/01/25 09:08:29;;;;;;;;;;;;;;;;;;;;;
2022/01/25 09:10:41;;;;;;;22.32;6.72;;;;;;;-3.46;100.00;101813.39;1450842;98;21072;-83
2022/01/25 09:13:07;;;;;;;20.82;6.58;;;;;;;-3.48;100.00;101811.36;1451397;98;21068;-83
2022/01/25 09:15:33;;;;;;;20.50;7.40;;;;;;;-3.58;100.00;101823.22;1451361;98;21125;-83
2022/01/25 09:17:59;;;;;;;20.37;6.75;;;;;;;-3.51;100.00;101829.59;1451094;97;21037;-84
2022/01/25 09:20:25;;;;;;;25.32;7.58;;;;;;;-3.53;100.00;101834.64;1451052;98;21115;-85
2022/01/25 09:22:51;;;;;;;24.23;7.10;;;;;;;-3.54;100.00;101829.04;1451117;98;21127;-84
2022/01/25 09:25:18;;;;;;;22.22;7.25;;;;;;;-3.46;100.00;101833.14;1451576;97;21735;-84
2022/01/25 09:27:45;;;;;;;20.37;6.55;;;;;;;-3.42;100.00;101822.17;1442466;99;21245;-83
2022/01/25 09:32:42;;;;;;;19.00;6.00;;;;;;;-3.32;100.00;101810.34;1403880;102;21096;-83
2022/01/25 09:35:08;;;;;;;20.17;6.42;;;;;;;-3.27;100.00;101809.91;1404153;102;21683;-84
2022/01/25 09:37:34;;;;;;;21.97;6.80;;;;;;;-3.25;100.00;101803.53;1404204;102;21109;-83
2022/01/25 09:40:01;;;;;;;18.42;5.83;;;;;;;-3.16;100.00;101798.41;1413461;101;21110;-83
2022/01/25 09:42:28;;;;;;;24.87;7.28;;;;;;;-3.11;100.00;101796.19;1439028;99;21294;-83
2022/01/25 09:44:55;;;;;;;21.55;6.28;;;;;;;-3.04;100.00;101790.19;1445126;99;21082;-83
2022/01/25 09:47:21;;;;;;;26.20;7.83;;;;;;;-2.98;100.00;101785.67;1445273;97;21116;-83
2022/01/25 09:49:47;;;;;;;17.95;5.95;;;;;;;-2.85;100.00;101784.56;1445315;99;21168;-83
2022/01/25 09:52:13;;;;;;;19.82;7.05;;;;;;;-2.83;100.00;101793.14;1445332;99;21787;-83
2022/01/25 09:54:39;;;;;;;20.35;6.75;;;;;;;-3.08;100.00;101795.41;1445249;99;21632;-82
2022/01/25 09:57:06;;;;;;;19.82;6.75;;;;;;;-3.18;100.00;101793.75;1446065;99;21082;-83
2022/01/25 09:59:32;;;;;;;17.85;6.05;;;;;;;-3.23;100.00;101791.55;1445295;99;21116;-82
2022/01/25 10:01:58;;;;;;;22.95;7.62;;;;;;;-3.27;100.00;101787.02;1467922;92;21045;-84
2022/01/25 10:04:40;;;;;;;23.05;6.42;;;;;;;-3.35;100.00;101786.05;1537357;92;21837;-83
2022/01/25 10:07:09;;;;;;;21.93;7.05;;;;;;;-3.39;100.00;101785.98;1560615;89;21104;-83
2022/01/25 10:09:40;;;;;;;20.68;6.72;;;;;;;-3.51;100.00;101782.17;1610097;89;21073;-83
2022/01/25 10:12:22;;;;;;;19.65;6.25;;;;;;;-3.51;100.00;101776.07;1610987;89;21061;-83
2022/01/25 10:15:02;;;;;;;17.23;6.03;;;;;;;-3.50;100.00;101782.53;1600728;89;21602;-83
2022/01/25 10:17:33;;;;;;;21.37;6.95;;;;;;;-3.45;100.00;101783.42;1592924;90;21150;-81
2022/01/25 10:20:00;;;;;;;19.45;6.65;;;;;;;-3.46;100.00;101777.81;1567821;90;21013;-82
2022/01/25 10:22:27;;;;;;;20.23;6.55;;;;;;;-3.44;100.00;101785.94;1562267;90;21123;-83
2022/01/25 10:24:52;;;;;;;19.98;5.47;;;;;;;-3.39;100.00;101780.72;1564193;90;21000;-83
2022/01/25 10:29:49;;;;;;;17.40;6.08;;;;;;;-3.49;100.00;101783.36;1551114;88;20968;-83
2022/01/25 10:32:15;;;;;;;21.00;6.85;;;;;;;-3.45;100.00;101776.83;1654984;86;20915;-84
2022/01/25 10:34:46;;;;;;;18.45;6.67;;;;;;;-3.46;100.00;101776.50;1629428;86;21080;-83
2022/01/25 10:37:17;;;;;;;17.45;6.28;;;;;;;-3.39;100.00;101776.77;1654940;85;21602;-83
2022/01/25 10:39:47;;;;;;;17.62;6.08;;;;;;;-3.41;100.00;101770.34;1633093;87;21654;-83
2022/01/25 10:42:24;;;;;;;13.85;5.17;;;;;;;-3.48;100.00;101764.77;1599763;89;21169;-83
2022/01/25 10:47:51;;;;;;;16.67;5.70;;;;;;;-3.35;100.00;101757.92;1499999;94;21102;-83
2022/01/25 10:50:31;;;;;;;18.48;5.70;;;;;;;-3.31;100.00;101759.29;1520586;92;21284;-84
2022/01/25 10:53:14;;;;;;;19.52;6.47;;;;;;;-3.33;100.00;101755.13;1520503;94;21091;-83
2022/01/25 10:55:51;;;;;;;24.87;7.33;;;;;;;-3.18;100.00;101749.76;1520327;94;21063;-83
2022/01/25 10:58:18;;;;;;;16.73;5.25;;;;;;;-3.08;100.00;101747.95;1519251;92;21083;-83
2022/01/25 11:00:49;;;;;;;18.65;6.53;;;;;;;-3.00;100.00;101742.81;1483474;94;21582;-84
2022/01/25 11:03:29;;;;;;;18.10;6.33;;;;;;;-2.93;100.00;101742.23;1497321;95;21098;-84
2022/01/25 11:05:57;;;;;;;15.80;5.28;;;;;;;-2.78;100.00;101741.63;1493186;95;21059;-84
2022/01/25 11:08:27;;;;;;;17.10;6.05;;;;;;;-2.76;100.00;101733.58;1535875;92;21789;-84
2022/01/25 11:11:01;;;;;;;18.52;6.00;;;;;;;-2.62;100.00;101737.07;1545072;92;21011;-85
2022/01/25 11:15:59;;;;;;;19.23;6.65;;;;;;;-2.83;100.00;101727.20;1546570;92;20431;-84
2022/01/25 11:18:25;;;;;;;18.65;7.10;;;;;;;-2.78;100.00;101725.80;1529678;92;21057;-84
2022/01/25 11:20:53;;;;;;;18.60;7.25;;;;;;;-2.72;100.00;101727.03;1532588;92;21571;-84
2022/01/25 11:23:20;;;;;;;18.75;6.08;;;;;;;-2.65;100.00;101726.78;1530902;92;21104;-84
2022/01/25 11:25:48;;;;;;;16.57;5.90;;;;;;;-2.51;100.00;101730.76;1538820;92;21000;-84
2022/01/25 11:28:15;;;;;;;17.90;5.65;;;;;;;-2.51;100.00;101726.80;1548464;92;21041;-84
2022/01/25 11:30:44;;;;;;;33.73;9.80;;;;;;;-2.66;100.00;101719.85;1548018;92;21022;-83
2022/01/25 11:33:12;;;;;;;27.00;7.97;;;;;;;-2.70;100.00;101723.77;1548998;92;21554;-83
2022/01/25 11:35:39;;;;;;;20.57;6.80;;;;;;;-2.65;100.00;101721.50;1548544;92;21055;-84
2022/01/25 11:38:06;;;;;;;19.02;7.10;;;;;;;-2.54;100.00;101727.09;1535991;91;21094;-84
2022/01/25 11:40:38;;;;;;;20.05;6.28;;;;;;;-2.43;100.00;101718.16;1557479;91;21026;-84
2022/01/25 11:43:11;;;;;;;20.97;6.57;;;;;;;-2.31;100.00;101715.66;1581196;89;21498;-84
2022/01/25 11:45:49;;;;;;;19.85;6.17;;;;;;;-2.09;100.00;101713.08;1696769;84;21470;-83
2022/01/25 11:48:23;;;;;;;21.57;7.15;;;;;;;-2.12;100.00;101718.66;1753066;81;21429;-84
2022/01/25 11:50:50;;;;;;;22.95;7.08;;;;;;;-2.29;100.00;101719.82;1750774;81;20987;-83
2022/01/25 11:53:19;;;;;;;19.52;6.97;;;;;;;-2.31;100.00;101714.34;1752352;81;21468;-84
2022/01/25 11:55:52;;;;;;;18.95;7.00;;;;;;;-2.18;100.00;101715.30;1752377;81;20986;-83
2022/01/25 11:58:31;;;;;;;21.30;6.25;;;;;;;-2.00;100.00;101710.03;1752607;81;22056;-84
2022/01/25 12:01:19;;;;;;;18.25;6.87;;;;;;;-1.99;100.00;101705.12;1715729;81;21479;-84
2022/01/25 12:03:58;;;;;;;23.80;7.78;;;;;;;-2.04;100.00;101706.88;1668231;84;21031;-84
2022/01/25 12:06:32;;;;;;;27.37;7.00;;;;;;;-2.08;100.00;101703.70;1624220;86;21458;-84
2022/01/25 12:09:16;;;;;;;26.05;7.42;;;;;;;-2.13;100.00;101705.95;1560778;90;21116;-84
2022/01/25 12:12:00;;;;;;;16.90;5.72;;;;;;;-2.31;100.00;101706.42;1560624;90;21534;-84
2022/01/25 12:14:42;;;;;;;18.55;6.55;;;;;;;-2.40;100.00;101702.86;1509933;94;21041;-84
2022/01/25 12:17:26;;;;;;;16.60;6.00;;;;;;;-2.47;100.00;101696.52;1512844;94;21510;-83
2022/01/25 12:20:00;;;;;;;24.00;7.53;;;;;;;-2.44;100.00;101700.64;1513043;94;21082;-83
2022/01/25 12:22:41;;;;;;;24.98;6.97;;;;;;;-2.23;100.00;101697.78;1512894;94;21133;-83
2022/01/25 12:28:09;;;;;;;21.68;6.75;;;;;;;-2.35;100.00;101696.66;1465033;97;21174;-84
2022/01/25 12:30:41;;;;;;;21.90;6.70;;;;;;;-2.40;100.00;101692.80;1490972;96;21151;-83
2022/01/25 12:33:13;;;;;;;22.05;7.20;;;;;;;-2.58;100.00;101692.26;1490592;95;21171;-84
2022/01/25 12:35:43;;;;;;;19.45;6.50;;;;;;;-2.60;100.00;101691.56;1489052;96;21136;-83
2022/01/25 12:38:20;;;;;;;21.07;6.80;;;;;;;-2.66;100.00;101688.19;1490917;96;21234;-84
2022/01/25 12:41:07;;;;;;;22.62;7.55;;;;;;;-2.60;100.00;101691.56;1495453;95;21081;-84
2022/01/25 12:43:50;;;;;;;22.22;6.03;;;;;;;-2.48;100.00;101696.66;1462901;98;21107;-84
2022/01/25 12:46:40;;;;;;;21.65;7.03;;;;;;;-2.38;100.00;101694.31;1462961;96;21185;-82
2022/01/25 12:49:10;;;;;;;22.75;6.85;;;;;;;-2.32;100.00;101687.13;1424179;99;21178;-83
2022/01/25 12:51:39;;;;;;;19.35;6.53;;;;;;;-2.45;100.00;101678.70;1386498;102;21688;-83
2022/01/25 12:54:10;;;;;;;24.00;7.08;;;;;;;-2.48;100.00;101676.36;1386514;102;21165;-83
2022/01/25 12:56:45;;;;;;;19.65;7.15;;;;;;;-2.57;100.00;101678.57;1379332;102;21158;-83
2022/01/25 12:59:19;;;;;;;20.57;6.42;;;;;;;-2.71;100.00;101672.45;1379433;102;21230;-83
2022/01/25 13:01:47;;;;;;;21.05;6.53;;;;;;;-2.85;100.00;101670.66;1364245;103;21617;-83
2022/01/25 13:04:13;;;;;;;25.68;7.37;;;;;;;-2.85;100.00;101674.61;1360843;104;21275;-85
2022/01/25 13:06:46;;;;;;;17.67;6.37;;;;;;;-2.90;100.00;101674.20;1400412;100;21277;-85
2022/01/25 13:09:19;;;;;;;17.80;6.37;;;;;;;-2.99;100.00;101671.13;1396171;101;21168;-83
2022/01/25 13:12:11;;;;;;;21.90;7.12;;;;;;;-3.08;100.00;101669.35;1396286;101;21185;-83
2022/01/25 13:17:14;;;;;;;17.92;6.37;;;;;;;-3.18;100.00;101664.09;1343586;105;21088;-83
2022/01/25 13:19:56;;;;;;;25.02;6.75;;;;;;;-3.20;100.00;101660.79;1357467;105;21107;-83
2022/01/25 13:22:28;;;;;;;20.43;6.67;;;;;;;-3.18;100.00;101652.72;1331312;106;21206;-84
2022/01/25 13:25:26;;;;;;;36.77;10.98;;;;;;;-3.26;100.00;101654.28;1330034;106;21644;-83
2022/01/25 13:27:49;;;;;;;39.53;12.47;;;;;;;-3.36;100.00;101657.91;1316542;106;21597;-83
2022/01/25 13:33:04;;;;;;;43.63;12.23;;;;;;;-3.37;100.00;101661.03;1307157;108;21250;-83
2022/01/25 13:35:35;;;;;;;25.52;8.03;;;;;;;-3.35;100.00;101654.28;1307129;108;21207;-83
2022/01/25 13:38:20;;;;;;;22.80;8.23;;;;;;;-3.32;100.00;101661.45;1321496;107;21295;-84
2022/01/25 13:46:37;;;;;;;20.32;7.15;;;;;;;-3.17;100.00;101663.63;1370870;103;21174;-83
2022/01/25 13:49:15;;;;;;;24.02;6.15;;;;;;;-3.19;100.00;101661.13;1403788;102;21688;-83
2022/01/25 13:51:48;;;;;;;19.67;6.95;;;;;;;-3.12;100.00;101660.05;1407596;100;21245;-82
2022/01/25 13:54:18;;;;;;;31.45;9.98;;;;;;;-3.08;100.00;101657.00;1448192;98;21121;-84
2022/01/25 13:56:45;;;;;;;35.33;9.70;;;;;;;-3.11;100.00;101657.78;1460081;98;21310;-83
2022/01/25 13:59:12;;;;;;;23.67;7.67;;;;;;;-3.18;100.00;101656.19;1473463;96;21053;-83
2022/01/25 14:01:41;;;;;;;22.73;7.45;;;;;;;-3.18;100.00;101653.55;1484321;96;21086;-83
2022/01/25 14:04:19;;;;;;;21.33;6.95;;;;;;;-3.15;100.00;101652.44;1484225;95;21222;-83
2022/01/25 14:06:52;;;;;;;25.08;7.97;;;;;;;-3.15;100.00;101650.63;1564081;85;21090;-83
2022/01/25 14:09:29;;;;;;;34.78;10.63;;;;;;;-3.17;100.00;101647.81;1615437;87;21170;-84
2022/01/25 14:25:38;;;;;;;20.00;6.53;;;;;;;-3.58;100.00;101651.98;1696151;83;21030;-83
2022/01/25 14:28:11;;;;;;;20.00;6.83;;;;;;;-3.57;100.00;101665.50;1674802;84;21023;-83
2022/01/25 14:30:41;;;;;;;22.07;6.65;;;;;;;-3.61;100.00;101661.98;1725740;81;21010;-83
2022/01/25 14:33:13;;;;;;;24.63;7.12;;;;;;;-3.66;100.00;101665.85;1725698;81;21124;-83
2022/01/25 14:35:45;;;;;;;20.85;7.20;;;;;;;-3.71;100.00;101663.29;1713429;83;20999;-83
2022/01/25 14:38:30;;;;;;;23.00;7.30;;;;;;;-3.78;100.00;101654.30;1683168;85;21028;-84
2022/01/25 14:41:07;;;;;;;26.33;6.87;;;;;;;-3.81;100.00;101651.45;1658638;86;21011;-84
2022/01/25 14:43:38;;;;;;;25.57;7.65;;;;;;;-3.82;100.00;101647.17;1658746;86;21224;-84
2022/01/25 14:46:13;;;;;;;19.25;7.05;;;;;;;-3.91;100.00;101636.16;1658740;85;21099;-84
2022/01/25 14:48:45;;;;;;;30.00;8.60;;;;;;;-3.91;100.00;101636.98;1658362;86;21337;-83
2022/01/25 14:51:14;;;;;;;26.90;7.90;;;;;;;-3.92;100.00;101635.80;1658574;86;21111;-83
2022/01/25 14:53:44;;;;;;;27.67;8.68;;;;;;;-3.97;100.00;101646.77;1658544;85;21147;-83
2022/01/25 14:56:13;;;;;;;21.77;7.33;;;;;;;-3.96;100.00;101648.91;1658663;86;21130;-83
2022/01/25 15:01:21;;;;;;;23.92;7.12;;;;;;;-3.98;100.00;101646.88;1658474;86;20960;-83
2022/01/25 15:03:49;;;;;;;23.73;7.17;;;;;;;-4.02;100.00;101650.77;1661255;85;21119;-82
2022/01/25 15:06:18;;;;;;;28.83;9.48;;;;;;;-4.08;100.00;101643.43;1685818;85;21099;-83
2022/01/25 15:08:53;;;;;;;21.87;7.12;;;;;;;-4.11;100.00;101649.80;1632384;87;21113;-83
2022/01/25 15:11:31;;;;;;;25.88;8.28;;;;;;;-4.15;100.00;101647.08;1626835;86;21567;-85
2022/01/25 15:14:06;;;;;;;26.95;8.30;;;;;;;-4.17;100.00;101645.91;1629286;88;21105;-83
2022/01/25 15:16:29;;;;;;;30.12;9.03;;;;;;;-4.19;100.00;101647.84;1645128;84;20954;-83
2022/01/25 15:21:39;;;;;;;;;;;;;;;;;;;;;
2022/01/25 15:23:59;;;;;;;32.38;10.00;;;;;;;-4.27;100.00;101645.05;1479362;97;21118;-83
2022/01/25 15:26:36;;;;;;;36.20;9.95;;;;;;;-4.20;100.00;101645.36;1477639;95;21677;-83
2022/01/25 15:29:01;;;;;;;29.37;9.28;;;;;;;-4.15;100.00;101646.62;1424335;100;21715;-83
2022/01/25 15:31:50;;;;;;;28.87;9.70;;;;;;;-4.14;100.00;101652.22;1417608;99;21828;-83
2022/01/25 15:34:16;;;;;;;28.35;9.95;;;;;;;-4.14;100.00;101646.13;1390972;101;21190;-82
2022/01/25 15:36:44;;;;;;;33.23;10.28;;;;;;;-4.16;100.00;101649.38;1392206;102;21185;-83
2022/01/25 15:39:11;;;;;;;30.35;10.10;;;;;;;-4.15;100.00;101646.62;1401246;102;21269;-84
2022/01/25 15:41:37;;;;;;;34.38;9.65;;;;;;;-4.14;100.00;101648.76;1401382;102;21208;-84
2022/01/25 15:44:06;;;;;;;31.12;9.83;;;;;;;-4.14;100.00;101644.81;1401248;102;21079;-84
2022/01/25 15:46:56;;;;;;;30.68;10.50;;;;;;;-4.11;100.00;101644.05;1401390;101;21190;-84
2022/01/25 15:49:05;;;;;;;34.20;10.50;;;;;;;-4.06;100.00;101644.93;1388145;100;21146;-83
2022/01/25 15:51:32;;;;;;;30.82;9.55;;;;;;;-4.07;100.00;101649.03;1385976;102;21832;-84
2022/01/25 15:53:58;;;;;;;38.08;10.30;;;;;;;-4.08;100.00;101649.52;1386056;101;21163;-83
2022/01/25 15:56:26;;;;;;;34.33;10.78;;;;;;;-4.06;100.00;101656.77;1372902;101;21171;-83
2022/01/25 15:58:52;;;;;;;27.75;9.25;;;;;;;-4.09;100.00;101650.47;1384974;102;21131;-83
2022/01/25 16:01:19;;;;;;;31.73;10.13;;;;;;;-4.09;100.00;101649.16;1380047;102;21035;-83
2022/01/25 16:03:51;;;;;;;27.37;9.55;;;;;;;-4.08;100.00;101654.78;1377603;102;21742;-83
2022/01/25 16:06:24;;;;;;;32.78;9.78;;;;;;;-4.11;100.00;101659.01;1363389;103;21573;-83
2022/01/25 16:08:53;;;;;;;30.95;9.55;;;;;;;-4.13;100.00;101657.81;1290335;109;21688;-83
2022/01/25 16:11:28;;;;;;;33.83;10.28;;;;;;;-4.12;100.00;101659.96;1290547;109;21235;-84
2022/01/25 16:13:56;;;;;;;32.60;10.23;;;;;;;-4.08;100.00;101655.28;1286763;110;21291;-83
2022/01/25 16:16:29;;;;;;;28.62;9.23;;;;;;;-4.05;100.00;101657.14;1273466;110;21191;-85
2022/01/25 16:19:01;;;;;;;32.85;9.65;;;;;;;-4.11;100.00;101656.38;1289806;108;21172;-83
2022/01/25 16:26:33;;;;;;;30.45;9.95;;;;;;;-4.20;100.00;101651.94;1255427;112;21263;-85
2022/01/25 16:29:23;;;;;;;;;;;;;;;;;;;;;
2022/01/25 16:31:43;;;;;;;27.70;9.73;;;;;;;-4.22;100.00;101648.12;1240784;115;21667;-85
2022/01/25 16:34:18;;;;;;;31.60;10.18;;;;;;;-4.24;100.00;101651.36;1272156;112;21264;-84
2022/01/25 16:36:43;;;;;;;29.67;9.58;;;;;;;-4.24;100.00;101643.47;1280698;109;21174;-82
2022/01/25 16:39:25;;;;;;;33.45;10.60;;;;;;;-4.23;100.00;101642.52;1298994;109;21220;-83
2022/01/25 16:41:51;;;;;;;36.95;12.00;;;;;;;-4.22;100.00;101645.98;1295219;110;21140;-83
2022/01/25 16:44:21;;;;;;;38.60;11.90;;;;;;;-4.21;100.00;101642.36;1298923;110;21194;-83
2022/01/25 16:46:50;;;;;;;36.50;12.07;;;;;;;-4.23;100.00;101632.48;1315039;108;21852;-84
2022/01/25 16:49:16;;;;;;;34.33;11.63;;;;;;;-4.22;100.00;101636.27;1324219;108;21549;-83
2022/01/25 16:51:43;;;;;;;31.33;11.20;;;;;;;-4.22;100.00;101639.39;1310152;108;21193;-84
2022/01/25 16:54:12;;;;;;;36.50;11.50;;;;;;;-4.22;100.00;101636.77;1322211;108;21229;-83
2022/01/25 16:56:50;;;;;;;;;;;;;;;;;;;;;
2022/01/25 16:59:19;;;;;;;;;;;;;;;;;;;;;
2022/01/25 17:11:53;;;;;;;43.78;13.45;;;;;;;-4.19;100.00;101635.17;1299321;107;21745;-83
2022/01/25 17:14:21;;;;;;;45.78;14.87;;;;;;;-4.21;100.00;101642.36;1282548;109;21234;-82
2022/01/25 17:17:00;;;;;;;;;;;;;;;;;;;;;
2022/01/25 17:19:29;;;;;;;40.38;14.30;;;;;;;-4.22;100.00;101638.08;1283954;110;21149;-83
2022/01/25 17:21:56;;;;;;;50.17;14.80;;;;;;;-4.24;100.00;101640.01;1281118;110;21269;-83
2022/01/25 17:24:24;;;;;;;49.00;15.63;;;;;;;-4.25;100.00;101639.67;1320328;107;21164;-83
2022/01/25 17:26:52;;;;;;;51.88;15.70;;;;;;;-4.27;100.00;101631.08;1336753;106;21144;-83
2022/01/25 17:29:20;;;;;;;47.83;14.98;;;;;;;-4.25;100.00;101633.09;1340256;103;21198;-81
2022/01/25 17:31:47;;;;;;;45.67;15.98;;;;;;;-4.27;100.00;101633.70;1352775;104;21733;-83
2022/01/25 17:34:17;;;;;;;52.50;15.85;;;;;;;-4.26;100.00;101636.22;1352298;104;21215;-84
2022/01/25 17:36:43;;;;;;;49.05;15.68;;;;;;;-4.24;100.00;101634.75;1361268;104;21209;-83
2022/01/25 17:39:12;;;;;;;54.25;16.75;;;;;;;-4.23;100.00;101631.17;1399818;101;21205;-85
2022/01/25 17:41:40;;;;;;;47.62;15.70;;;;;;;-4.21;100.00;101626.58;1380738;102;21772;-83
2022/01/25 17:44:08;;;;;;;49.98;16.30;;;;;;;-4.23;100.00;101630.67;1378130;104;21647;-83
2022/01/25 17:46:53;;;;;;;58.80;16.37;;;;;;;-4.26;100.00;101628.32;1376194;103;21986;-84
2022/01/25 17:49:20;;;;;;;52.00;15.78;;;;;;;-4.25;100.00;101622.56;1378104;103;21215;-83
2022/01/25 17:51:47;;;;;;;47.75;16.17;;;;;;;-4.21;100.00;101630.52;1397215;102;21122;-85
2022/01/25 17:54:16;;;;;;;46.35;15.30;;;;;;;-4.18;100.00;101635.02;1390634;102;21172;-85
2022/01/25 17:56:42;;;;;;;47.95;16.02;;;;;;;-4.18;100.00;101635.51;1394950;102;21640;-85
2022/01/25 17:59:09;;;;;;;48.23;15.55;;;;;;;-4.17;100.00;101639.34;1398292;101;21998;-86
2022/01/25 18:01:39;;;;;;;48.58;15.30;;;;;;;-4.17;100.00;101639.34;1426319;97;21606;-83
2022/01/25 18:04:09;;;;;;;47.38;15.43;;;;;;;-4.18;100.00;101635.02;1444214;96;21107;-83
2022/01/25 18:06:40;;;;;;;45.35;15.45;;;;;;;-4.18;100.00;101624.98;1520726;93;21111;-83
2022/01/25 18:09:07;;;;;;;47.98;15.25;;;;;;;-4.18;100.00;101626.30;1461725;96;21600;-83
2022/01/25 18:11:35;;;;;;;45.70;14.75;;;;;;;-4.17;100.00;101626.66;1476388;97;21210;-84
2022/01/25 18:14:01;;;;;;;44.60;14.80;;;;;;;-4.12;100.00;101627.06;1474961;97;21708;-83
2022/01/25 18:16:29;;;;;;;44.30;14.47;;;;;;;-4.10;100.00;101623.81;1476423;97;21327;-85
2022/01/25 18:18:58;;;;;;;42.33;13.50;;;;;;;-4.13;100.00;101629.36;1439043;98;21175;-84
2022/01/25 18:21:24;;;;;;;47.30;14.80;;;;;;;-4.14;100.00;101627.22;1506235;95;21086;-85
2022/01/25 18:24:03;;;;;;;47.93;14.45;;;;;;;-4.11;100.00;101613.78;1538751;93;21108;-84
2022/01/25 18:29:07;;;;;;;43.17;14.68;;;;;;;-4.12;100.00;101623.97;1468722;96;21118;-84
2022/01/25 18:31:35;;;;;;;39.30;13.50;;;;;;;-4.14;100.00;101618.49;1469048;96;21152;-83
2022/01/25 18:34:01;;;;;;;44.65;14.90;;;;;;;-4.16;100.00;101621.25;1480184;94;21015;-84
2022/01/25 18:36:27;;;;;;;39.33;13.13;;;;;;;-4.17;100.00;101620.91;1541121;91;21182;-83
2022/01/25 18:39:12;;;;;;;43.78;13.80;;;;;;;-4.19;100.00;101621.52;1549726;91;20975;-83
2022/01/25 18:41:41;;;;;;;43.10;14.43;;;;;;;-4.21;100.00;101619.51;1550607;91;21069;-83
2022/01/25 18:44:08;;;;;;;43.60;13.72;;;;;;;-4.19;100.00;101620.21;1550492;91;21113;-83
2022/01/25 18:46:36;;;;;;;45.73;14.53;;;;;;;-4.15;100.00;101619.44;1539241;91;21153;-83
2022/01/25 18:49:05;;;;;;;47.23;13.95;;;;;;;-4.16;100.00;101621.25;1573643;89;21197;-84
2022/01/25 18:51:35;;;;;;;47.35;14.85;;;;;;;-4.17;100.00;101627.49;1549112;90;21098;-83
2022/01/25 18:54:02;;;;;;;41.18;13.68;;;;;;;-4.18;100.00;101631.07;1558362;90;21091;-83
2022/01/25 18:56:29;;;;;;;44.53;14.10;;;;;;;-4.19;100.00;101626.79;1598127;89;21580;-83
2022/01/25 18:58:55;;;;;;;46.88;14.98;;;;;;;-4.18;100.00;101630.24;1598169;88;21072;-83
2022/01/25 19:01:22;;;;;;;42.70;13.83;;;;;;;-4.21;100.00;101625.26;1597996;89;21090;-84
2022/01/25 19:03:49;;;;;;;51.08;15.93;;;;;;;-4.21;100.00;101624.77;1597542;89;21114;-84
2022/01/25 19:06:17;;;;;;;47.17;15.05;;;;;;;-4.19;100.00;101628.59;1597837;89;21098;-84
2022/01/25 19:08:45;;;;;;;48.20;16.32;;;;;;;-4.20;100.00;101629.08;1597956;89;21126;-83
2022/01/25 19:11:12;;;;;;;50.05;16.32;;;;;;;-4.25;100.00;101629.97;1543524;91;21627;-84
2022/01/25 19:13:39;;;;;;;50.28;16.27;;;;;;;-4.27;100.00;101633.70;1543647;91;21201;-84
2022/01/25 19:16:06;;;;;;;54.27;16.27;;;;;;;-4.31;100.00;101625.27;1560578;89;21067;-84
2022/01/25 19:18:34;;;;;;;53.48;17.90;;;;;;;-4.31;100.00;101627.06;1567578;90;21085;-83
2022/01/25 19:21:00;;;;;;;50.90;16.37;;;;;;;-4.36;100.00;101631.41;1541267;92;21129;-84
2022/01/25 19:23:28;;;;;;;56.15;16.30;;;;;;;-4.34;100.00;101632.11;1540181;93;21262;-84
2022/01/25 19:25:54;;;;;;;53.05;18.40;;;;;;;-4.30;100.00;101631.34;1638667;85;21888;-84
2022/01/25 19:28:20;;;;;;;54.25;17.85;;;;;;;-4.31;100.00;101633.64;1687649;84;21539;-84
2022/01/25 19:30:46;;;;;;;56.15;18.73;;;;;;;-4.34;100.00;101626.85;1684066;85;21011;-84
2022/01/25 19:33:13;;;;;;;63.40;18.87;;;;;;;-4.34;100.00;101625.53;1683960;85;21093;-83
2022/01/25 19:35:41;;;;;;;59.33;19.35;;;;;;;-4.35;100.00;101622.56;1684051;85;21058;-84
2022/01/25 19:38:14;;;;;;;63.00;19.25;;;;;;;-4.33;100.00;101623.24;1684012;85;21162;-84
2022/01/25 19:40:39;;;;;;;64.42;19.60;;;;;;;-4.30;100.00;101623.45;1683522;85;21035;-84
2022/01/25 19:43:06;;;;;;;55.05;18.95;;;;;;;-4.33;100.00;101621.92;1684206;85;21511;-84
2022/01/25 19:45:33;;;;;;;58.68;19.73;;;;;;;-4.34;100.00;101613.70;1683604;85;21034;-84
2022/01/25 19:48:00;;;;;;;58.73;18.60;;;;;;;-4.37;100.00;101613.48;1684095;85;21058;-84
2022/01/25 19:50:32;;;;;;;60.25;19.70;;;;;;;-4.37;100.00;101604.77;1684133;85;21144;-84
2022/01/25 19:53:02;;;;;;;64.17;21.93;;;;;;;-4.40;100.00;101608.49;1598779;89;21003;-84
2022/01/25 19:55:32;;;;;;;61.92;20.52;;;;;;;-4.38;100.00;101609.20;1595316;89;21013;-84
2022/01/25 19:57:53;;;;;;;61.73;19.82;;;;;;;-4.40;100.00;101603.72;1595090;89;21070;-84
2022/01/25 20:00:21;;;;;;;55.83;18.70;;;;;;;-4.42;100.00;101602.53;1599291;89;21093;-84
2022/01/25 20:02:47;;;;;;;61.35;19.40;;;;;;;-4.42;100.00;101603.02;1599435;89;21185;-83
2022/01/25 20:05:15;;;;;;;56.23;19.60;;;;;;;-4.39;100.00;101599.63;1599433;89;21655;-84
2022/01/25 20:07:42;;;;;;;58.73;19.37;;;;;;;-4.41;100.00;101598.95;1599464;89;21021;-84
2022/01/25 20:10:14;;;;;;;67.05;21.42;;;;;;;-4.40;100.00;101595.34;1578674;89;21687;-84
2022/01/25 20:12:41;;;;;;;74.27;22.58;;;;;;;-4.41;100.00;101597.64;1599554;89;21154;-84
2022/01/25 20:15:09;;;;;;;69.25;22.58;;;;;;;-4.41;100.00;101605.53;1638257;86;21104;-84
2022/01/25 20:17:40;;;;;;;73.60;21.25;;;;;;;-4.37;100.00;101604.27;1652351;86;21032;-84
2022/01/25 20:20:12;;;;;;;65.95;20.62;;;;;;;-4.36;100.00;101602.47;1651043;85;21076;-83
2022/01/25 20:25:23;;;;;;;66.62;20.27;;;;;;;-4.43;100.00;101604.00;1600079;88;21136;-83
2022/01/25 20:28:06;;;;;;;68.28;19.65;;;;;;;-4.44;100.00;101602.31;1600201;88;21090;-84
2022/01/25 20:30:34;;;;;;;69.05;20.00;;;;;;;-4.44;100.00;101604.95;1599367;89;21016;-84
2022/01/25 20:32:55;;;;;;;57.90;18.05;;;;;;;-4.49;100.00;101599.28;1598797;88;21040;-84
2022/01/25 20:35:25;;;;;;;55.45;18.37;;;;;;;-4.51;100.00;101599.90;1602331;89;21049;-84
2022/01/25 20:37:51;;;;;;;57.58;17.70;;;;;;;-4.57;100.00;101587.62;1599554;89;21018;-84
2022/01/25 20:40:18;;;;;;;52.83;16.95;;;;;;;-4.58;100.00;101591.23;1602964;89;21554;-84
2022/01/25 20:42:44;;;;;;;59.50;18.80;;;;;;;-4.57;100.00;101585.48;1602794;89;21089;-84
2022/01/25 20:45:10;;;;;;;63.60;18.70;;;;;;;-4.55;100.00;101585.38;1602686;89;21021;-84
2022/01/25 20:47:36;;;;;;;53.15;17.75;;;;;;;-4.55;100.00;101585.38;1602922;89;20950;-84
2022/01/25 20:50:05;;;;;;;52.03;17.05;;;;;;;-4.57;100.00;101584.17;1638387;85;21039;-84
2022/01/25 20:52:31;;;;;;;53.55;18.30;;;;;;;-4.59;100.00;101585.64;1663435;84;21969;-84
2022/01/25 20:54:57;;;;;;;54.75;17.82;;;;;;;-4.61;100.00;101580.17;1640880;86;20995;-84
2022/01/25 20:57:25;;;;;;;51.15;17.05;;;;;;;-4.60;100.00;101569.98;1663333;86;21121;-84
2022/01/25 20:59:51;;;;;;;47.05;16.62;;;;;;;-4.54;100.00;101564.17;1663612;86;21130;-83